Torreon International Airport
MMTC : now visible

Airfield :











YOU CAN JOIN US ON...

 
LOGIN :

Register | Disclaimer

   EN    FR    IT 

 









Legend :    VFR   Marginal VFR   IFR   Intensive IFR   Very Intensive IFR
Visi :
Ceiling :
>= 8 km
>= 3000ft
5 to 8 km
1000 to 3000 ft
1500m to 5 km
500 to 1000 ft
800 to 1500m
200 to 500 ft
< 800m
< 200 ft
Symbols :   Thunderstorms  Fog  Heavy snow  Heavy precipitations  Wind > 20 kt






- Airport Elevation : 3688 ft
- IATA code : TRC


MMTC - Torreon International

CURRENT METAR :
  • 110242Z 35006KT 10SM SCT030 17/06 A3025 RMK SLP193 52023 946 8/500

EXPIRED METARs :
  • 110143Z 01006KT 10SM FEW030 18/05 A3023 RMK 8/500
  • 110053Z 35008KT 10SM FEW030 19/05 A3020 RMK 8/500

TAF TAF MMTC
Valid from the 10 at 18:00 until the 11 at 18:00 UTC


101738Z 1018/1118 32015KT 5SM BLDU SCT220
BECMG 1019/1020 36015G25KT SCT030
TEMPO 1020/1024 3SM BLDU
FM110200 03015KT 6SM HZ SCT030 BKN080
TEMPO 1102/1106 6SM BLDU
FM110700 03008KT P6SM BKN030
FM111200 03005KT P6SM SCT030



MET'MAP, your aeronautical weather chart ! - Copyright ORBIFLY December 2007 - Disclaimer

ORBIFLY MET'MAP TEAM :

Programming & Development : Alexandra Zaïnal
Concept & original design : Baudouin d'Aumeries
Assistance for programming : Marc-Olivier Méhu
Technical & hardware support : Manuel Goepfert

Contact : metmap@orbifly.com




SOURCES & CREDITS :

   NOAA       Earth
Advisory